Time;durP1;ratioP1;P1;durP2;ratioP2;P2;SDS_P1;SDS_P2;PMS_P1;PMS_P2;Temp;Humidity;BMP_temperature;BMP_pressure;BME280_temperature;BME280_humidity;BME280_pressure;Samples;Min_cycle;Max_cycle;Signal;HPM_P1;HPM_P2
2022/12/02 00:02:06;;;;;;;;;;;;;;;0.57;83.05;93682.53;5050986;28;19908;-34
2022/12/02 00:04:32;;;;;;;;;;;;;;;0.60;83.18;93687.03;5050972;28;19999;-34
2022/12/02 00:06:57;;;;;;;;;;;;;;;0.62;83.00;93692.72;5049805;28;20009;-34
2022/12/02 00:09:27;;;;;;;;;;;;;;;0.58;83.16;93684.03;5049766;28;19912;-34
2022/12/02 00:11:53;;;;;;;;;;;;;;;0.57;83.38;93687.22;5051097;28;19970;-34
2022/12/02 00:14:21;;;;;;;;;;;;;;;0.59;83.65;93679.34;5050829;28;20375;-34
2022/12/02 00:16:47;;;;;;;;;;;;;;;0.57;83.21;93687.22;5050992;28;20311;-34
2022/12/02 00:19:12;;;;;;;;;;;;;;;0.62;83.13;93681.84;5050882;28;19912;-34
2022/12/02 00:21:37;;;;;;;;;;;;;;;0.63;82.92;93688.00;5050746;28;20367;-34
2022/12/02 00:24:03;;;;;;;;;;;;;;;0.53;83.74;93690.16;5050769;28;19948;-34
2022/12/02 00:26:28;;;;;;;;;;;;;;;0.59;83.42;93682.81;5050599;28;19913;-34
2022/12/02 00:28:53;;;;;;;;;;;;;;;0.70;82.80;93693.03;5059718;28;19934;-34
2022/12/02 00:31:19;;;;;;;;;;;;;;;0.70;82.97;93691.06;5050620;28;20395;-34
2022/12/02 00:33:44;;;;;;;;;;;;;;;0.62;82.88;93692.72;5050888;28;19916;-34
2022/12/02 00:36:09;;;;;;;;;;;;;;;0.57;82.71;93689.94;5050591;28;19931;-34
2022/12/02 00:38:35;;;;;;;;;;;;;;;0.55;83.56;93686.94;5050618;28;19908;-34
2022/12/02 00:41:00;;;;;;;;;;;;;;;0.55;83.32;93690.41;5050917;28;19909;-34
2022/12/02 00:48:53;;;;;;;;;;;;;;;0.59;83.06;93687.47;5050640;28;19919;-34
2022/12/02 00:51:18;;;;;;;;;;;;;;;0.60;83.72;93683.56;5050328;28;19917;-34
2022/12/02 00:53:43;;;;;;;;;;;;;;;0.72;83.33;93685.16;5050777;28;20380;-34
2022/12/02 00:56:09;;;;;;;;;;;;;;;0.74;84.10;93675.28;5050492;28;20274;-34
2022/12/02 00:58:34;;;;;;;;;;;;;;;0.87;83.95;93682.34;5050726;28;19916;-34
2022/12/02 01:00:59;;;;;;;;;;;;;;;0.86;84.87;93678.13;5049235;28;19909;-34
2022/12/02 01:03:25;;;;;;;;;;;;;;;0.89;84.29;93683.31;5050388;28;19909;-34
2022/12/02 01:05:50;;;;;;;;;;;;;;;0.82;83.75;93669.44;5050394;28;19909;-34
2022/12/02 01:08:15;;;;;;;;;;;;;;;0.82;83.16;93664.75;5050705;28;19909;-34
2022/12/02 01:10:40;;;;;;;;;;;;;;;0.82;83.14;93666.72;5050346;28;20483;-34
2022/12/02 01:13:06;;;;;;;;;;;;;;;0.89;82.39;93667.00;5050592;28;19913;-34
2022/12/02 01:15:31;;;;;;;;;;;;;;;0.95;82.77;93664.38;5054166;28;20426;-34
2022/12/02 01:17:56;;;;;;;;;;;;;;;0.91;83.96;93659.13;5054382;28;19909;-34
2022/12/02 01:20:21;;;;;;;;;;;;;;;0.91;84.13;93659.13;5054095;28;19959;-34
2022/12/02 01:22:47;;;;;;;;;;;;;;;0.93;83.71;93656.69;5054328;28;19996;-34
2022/12/02 01:25:12;;;;;;;;;;;;;;;0.92;83.39;93649.75;5053818;28;19912;-34
2022/12/02 01:27:37;;;;;;;;;;;;;;;0.98;82.93;93649.78;5054250;28;19956;-34
2022/12/02 01:30:03;;;;;;;;;;;;;;;1.02;82.19;93640.19;5064111;28;19928;-34
2022/12/02 01:32:28;;;;;;;;;;;;;;;1.07;82.41;93652.34;5073655;28;19920;-34
2022/12/02 01:34:53;;;;;;;;;;;;;;;1.09;82.92;93649.88;5074117;28;19908;-34
2022/12/02 01:37:18;;;;;;;;;;;;;;;1.03;83.50;93640.94;5073758;28;20411;-34
2022/12/02 01:39:44;;;;;;;;;;;;;;;1.00;82.94;93644.63;5074053;28;19954;-34
2022/12/02 01:42:09;;;;;;;;;;;;;;;0.78;82.55;93650.59;5073871;28;19908;-34
2022/12/02 01:44:34;;;;;;;;;;;;;;;0.85;83.33;93641.28;5073653;28;20070;-34
2022/12/02 01:46:59;;;;;;;;;;;;;;;0.89;83.40;93641.84;5058350;28;19923;-34
2022/12/02 01:49:25;;;;;;;;;;;;;;;0.93;84.05;93643.09;5052427;28;19915;-34
2022/12/02 01:51:50;;;;;;;;;;;;;;;0.97;83.70;93649.06;5052574;28;19913;-34
2022/12/02 01:54:16;;;;;;;;;;;;;;;0.97;83.98;93648.31;5053453;28;20290;-34
2022/12/02 01:56:41;;;;;;;;;;;;;;;1.00;83.86;93644.63;5053455;28;19999;-34
2022/12/02 01:59:08;;;;;;;;;;;;;;;0.97;83.13;93640.16;5052484;28;19991;-34
2022/12/02 02:01:33;;;;;;;;;;;;;;;0.98;83.09;93642.38;5052457;28;20321;-34
2022/12/02 02:03:59;;;;;;;;;;;;;;;0.99;83.04;93641.16;5053571;28;19995;-34
2022/12/02 02:06:25;;;;;;;;;;;;;;;0.93;82.84;93642.34;5053173;28;19913;-34
2022/12/02 02:08:50;;;;;;;;;;;;;;;0.90;83.71;93646.03;5052308;28;19915;-34
2022/12/02 02:11:15;;;;;;;;;;;;;;;0.95;84.04;93643.38;5053344;28;20335;-34
2022/12/02 02:13:41;;;;;;;;;;;;;;;1.05;83.57;93643.91;5053454;28;20024;-34
2022/12/02 02:16:06;;;;;;;;;;;;;;;1.09;83.78;93642.47;5052985;28;19991;-34
2022/12/02 02:18:31;;;;;;;;;;;;;;;1.00;83.72;93645.38;5052953;28;19909;-34
2022/12/02 02:20:57;;;;;;;;;;;;;;;0.99;83.41;93648.56;5053263;28;19909;-34
2022/12/02 02:23:22;;;;;;;;;;;;;;;1.07;83.39;93650.38;5051772;28;20389;-34
2022/12/02 02:25:49;;;;;;;;;;;;;;;1.13;82.72;93655.84;5052507;28;20011;-34
2022/12/02 02:28:14;;;;;;;;;;;;;;;1.17;83.00;93653.66;5056837;28;20285;-34
2022/12/02 02:30:39;;;;;;;;;;;;;;;1.16;82.99;93652.91;5057365;28;19939;-34
2022/12/02 02:33:06;;;;;;;;;;;;;;;1.13;83.07;93653.88;5052753;28;20011;-34
2022/12/02 02:35:35;;;;;;;;;;;;;;;1.11;83.23;93650.16;5051818;28;19909;-34
2022/12/02 02:38:00;;;;;;;;;;;;;;;1.13;82.95;93656.59;5051520;28;20023;-34
2022/12/02 02:40:25;;;;;;;;;;;;;;;1.17;83.06;93656.41;5052565;28;20003;-34
2022/12/02 02:42:51;;;;;;;;;;;;;;;1.06;83.31;93659.75;5052409;28;19912;-34
2022/12/02 02:45:17;;;;;;;;;;;;;;;1.10;83.83;93659.53;5051677;28;19909;-34
2022/12/02 02:47:43;;;;;;;;;;;;;;;1.10;83.76;93652.13;5052433;28;19919;-34
2022/12/02 02:50:08;;;;;;;;;;;;;;;1.11;83.65;93663.75;5052733;28;19909;-34
2022/12/02 02:52:34;;;;;;;;;;;;;;;0.99;83.76;93665.63;5052323;28;19913;-34
2022/12/02 02:54:59;;;;;;;;;;;;;;;0.94;83.79;93671.00;5051149;28;19916;-34
2022/12/02 02:57:24;;;;;;;;;;;;;;;0.97;83.97;93678.22;5052623;28;19908;-34
2022/12/02 02:59:50;;;;;;;;;;;;;;;0.95;83.63;93676.00;5052265;28;20004;-34
2022/12/02 03:02:15;;;;;;;;;;;;;;;0.96;83.55;93672.03;5051276;28;19962;-34
2022/12/02 03:04:40;;;;;;;;;;;;;;;0.97;84.00;93675.50;5052151;28;19908;-34
2022/12/02 03:07:05;;;;;;;;;;;;;;;0.92;83.06;93665.31;5051236;28;19909;-34
2022/12/02 03:09:31;;;;;;;;;;;;;;;0.94;83.20;93679.91;5052053;28;20350;-34
2022/12/02 03:11:57;;;;;;;;;;;;;;;0.89;83.69;93677.16;5051077;28;19944;-34
2022/12/02 03:14:22;;;;;;;;;;;;;;;0.94;82.70;93677.19;5052352;28;20595;-34
2022/12/02 03:16:47;;;;;;;;;;;;;;;0.98;82.22;93685.88;5052186;28;20441;-34
2022/12/02 03:19:12;;;;;;;;;;;;;;;0.93;82.88;93689.31;5050777;28;19912;-34
2022/12/02 03:21:38;;;;;;;;;;;;;;;0.93;83.14;93683.13;5051889;28;19916;-34
2022/12/02 03:24:03;;;;;;;;;;;;;;;0.99;83.12;93684.66;5052165;28;19912;-34
2022/12/02 03:26:28;;;;;;;;;;;;;;;0.87;83.49;93685.06;5050498;28;20376;-34
2022/12/02 03:28:54;;;;;;;;;;;;;;;0.90;83.19;93678.63;5052737;28;19909;-34
2022/12/02 03:31:19;;;;;;;;;;;;;;;0.87;83.43;93685.78;5070401;28;20429;-34
2022/12/02 03:33:45;;;;;;;;;;;;;;;0.75;83.58;93671.38;5070399;28;19908;-34
2022/12/02 03:36:10;;;;;;;;;;;;;;;0.81;83.13;93676.09;5070796;28;19916;-34
2022/12/02 03:38:35;;;;;;;;;;;;;;;0.87;83.26;93682.34;5063669;28;19928;-34
2022/12/02 03:41:01;;;;;;;;;;;;;;;0.93;83.59;93685.84;5051502;28;20343;-34
2022/12/02 03:43:26;;;;;;;;;;;;;;;0.99;83.84;93687.38;5050209;28;19916;-34
2022/12/02 03:45:51;;;;;;;;;;;;;;;1.04;83.65;93694.09;5051377;28;19951;-34
2022/12/02 03:48:20;;;;;;;;;;;;;;;1.01;83.98;93690.38;5051602;28;19955;-34
2022/12/02 03:50:46;;;;;;;;;;;;;;;1.08;83.81;93705.50;5050439;28;19908;-34
2022/12/02 03:53:11;;;;;;;;;;;;;;;1.06;83.99;93697.09;5050055;28;20003;-34
2022/12/02 03:55:36;;;;;;;;;;;;;;;1.06;83.86;93699.81;5051480;28;19934;-34
2022/12/02 03:58:05;;;;;;;;;;;;;;;0.95;84.19;93708.59;5051446;28;19909;-34
2022/12/02 04:00:30;;;;;;;;;;;;;;;0.99;83.82;93708.38;5051018;28;19916;-34
2022/12/02 04:02:56;;;;;;;;;;;;;;;1.01;83.88;93712.13;5050211;28;19909;-34
2022/12/02 04:05:21;;;;;;;;;;;;;;;1.01;83.97;93705.94;5051039;28;20336;-34
2022/12/02 04:07:46;;;;;;;;;;;;;;;0.99;83.39;93711.09;5051034;28;20006;-34
2022/12/02 04:10:11;;;;;;;;;;;;;;;0.93;84.25;93716.50;5050941;28;20388;-34
2022/12/02 04:12:37;;;;;;;;;;;;;;;0.95;83.16;93716.75;5049898;28;19912;-34
2022/12/02 04:16:58;;;;;;;;;;;;;;;0.85;83.78;93720.84;5129190;27;19976;-34
2022/12/02 04:19:23;;;;;;;;;;;;;;;0.87;83.25;93715.69;5129526;28;19916;-34
2022/12/02 04:21:48;;;;;;;;;;;;;;;0.77;83.44;93714.34;5129037;28;19958;-34
2022/12/02 04:24:14;;;;;;;;;;;;;;;0.78;83.73;93730.16;5129187;28;19912;-34
2022/12/02 04:26:39;;;;;;;;;;;;;;;0.76;84.58;93723.72;5112232;27;19923;-34
2022/12/02 04:29:04;;;;;;;;;;;;;;;0.73;84.75;93728.16;5106264;28;19912;-34
2022/12/02 04:31:30;;;;;;;;;;;;;;;0.74;85.21;93720.72;5086878;28;20061;-34
2022/12/02 04:33:55;;;;;;;;;;;;;;;0.82;85.66;93727.25;5087965;28;19912;-34
2022/12/02 04:36:20;;;;;;;;;;;;;;;0.84;85.42;93729.50;5088069;28;19916;-34
2022/12/02 04:38:45;;;;;;;;;;;;;;;0.75;84.68;93725.72;5088239;28;19920;-34
2022/12/02 04:41:11;;;;;;;;;;;;;;;0.73;85.56;93730.13;5087891;28;19919;-34
2022/12/02 04:43:36;;;;;;;;;;;;;;;0.81;85.54;93728.47;5087813;28;20065;-34
2022/12/02 04:46:01;;;;;;;;;;;;;;;0.88;85.40;93728.06;5088078;28;19912;-34
2022/12/02 04:48:27;;;;;;;;;;;;;;;0.87;84.94;93723.84;5087922;28;20380;-34
2022/12/02 04:50:52;;;;;;;;;;;;;;;0.92;84.50;93727.84;5087700;28;20395;-34
2022/12/02 04:53:17;;;;;;;;;;;;;;;0.94;84.41;93722.66;5087739;28;19950;-34
2022/12/02 04:55:45;;;;;;;;;;;;;;;0.89;84.69;93726.81;5087890;28;20085;-34
2022/12/02 04:58:10;;;;;;;;;;;;;;;0.92;84.41;93725.13;5087469;28;19935;-34
2022/12/02 05:00:35;;;;;;;;;;;;;;;0.96;84.25;93720.97;5087522;28;19913;-34
2022/12/02 05:03:01;;;;;;;;;;;;;;;0.88;84.04;93733.50;5087475;28;20363;-34
2022/12/02 05:05:26;;;;;;;;;;;;;;;0.95;84.18;93733.06;5087792;28;19912;-34
2022/12/02 05:07:51;;;;;;;;;;;;;;;0.98;84.15;93736.78;5087710;28;20312;-34
2022/12/02 05:10:17;;;;;;;;;;;;;;;1.01;84.22;93730.41;5087551;28;19919;-34
2022/12/02 05:12:42;;;;;;;;;;;;;;;1.04;85.07;93737.59;5087286;28;19912;-34
2022/12/02 05:15:07;;;;;;;;;;;;;;;1.08;84.99;93741.59;5087161;28;19931;-34
2022/12/02 05:17:33;;;;;;;;;;;;;;;1.10;85.15;93741.13;5102759;28;20315;-34
2022/12/02 05:19:58;;;;;;;;;;;;;;;1.09;84.70;93734.91;5128305;27;19912;-34
2022/12/02 05:22:23;;;;;;;;;;;;;;;1.10;84.30;93735.69;5128169;28;19916;-34
2022/12/02 05:24:48;;;;;;;;;;;;;;;1.09;84.30;93740.34;5127045;27;19985;-34
2022/12/02 05:27:14;;;;;;;;;;;;;;;1.06;83.45;93735.16;5100030;28;19920;-34
2022/12/02 05:29:39;;;;;;;;;;;;;;;1.05;82.69;93736.34;5077737;28;20384;-34
2022/12/02 05:32:04;;;;;;;;;;;;;;;1.04;82.99;93741.03;5073789;28;19936;-34
2022/12/02 05:34:30;;;;;;;;;;;;;;;1.08;83.35;93741.59;5078194;28;19965;-34
2022/12/02 05:36:55;;;;;;;;;;;;;;;1.13;83.27;93735.44;5093611;28;19919;-34
2022/12/02 05:39:21;;;;;;;;;;;;;;;1.12;83.35;93739.41;5093925;28;19912;-34
2022/12/02 05:41:46;;;;;;;;;;;;;;;1.08;82.54;93744.31;5093571;28;20323;-34
2022/12/02 05:44:14;;;;;;;;;;;;;;;1.14;82.11;93750.56;5093851;28;19965;-34
2022/12/02 05:46:39;;;;;;;;;;;;;;;1.18;81.57;93751.06;5093751;28;19912;-34
2022/12/02 05:49:06;;;;;;;;;;;;;;;1.19;81.50;93755.28;5093810;28;19919;-34
2022/12/02 05:51:31;;;;;;;;;;;;;;;1.13;81.19;93759.91;5092197;28;19919;-34
2022/12/02 05:53:57;;;;;;;;;;;;;;;1.14;80.77;93756.00;5093622;28;19912;-34
2022/12/02 05:56:25;;;;;;;;;;;;;;;1.06;80.86;93754.91;5093472;28;20410;-34
2022/12/02 05:58:51;;;;;;;;;;;;;;;0.99;81.96;93752.63;5093493;28;19994;-34
2022/12/02 06:01:18;;;;;;;;;;;;;;;1.03;82.64;93752.41;5093197;28;20422;-34
2022/12/02 06:03:43;;;;;;;;;;;;;;;1.06;82.82;93754.91;5093380;28;19919;-34
2022/12/02 06:06:09;;;;;;;;;;;;;;;1.11;83.08;93756.19;5093216;28;19912;-34
2022/12/02 06:08:34;;;;;;;;;;;;;;;1.14;83.31;93758.72;5092182;28;19919;-34
2022/12/02 06:11:00;;;;;;;;;;;;;;;1.15;83.63;93762.91;5093304;28;19912;-34
2022/12/02 06:13:27;;;;;;;;;;;;;;;0.95;84.19;93767.66;5092947;28;20335;-34
2022/12/02 06:15:52;;;;;;;;;;;;;;;1.07;83.80;93764.56;5092557;28;19942;-34
2022/12/02 06:18:18;;;;;;;;;;;;;;;1.06;84.50;93773.94;5091735;28;19916;-34
2022/12/02 06:20:44;;;;;;;;;;;;;;;1.09;84.40;93773.00;5093190;28;19912;-34
2022/12/02 06:23:11;;;;;;;;;;;;;;;1.03;84.53;93774.16;5092661;28;19912;-34
2022/12/02 06:25:37;;;;;;;;;;;;;;;1.08;84.83;93774.22;5091478;28;19912;-34
2022/12/02 06:28:20;;;;;;;;;;;;;;;1.15;85.41;93787.38;5091292;28;20330;-34
2022/12/02 06:30:45;;;;;;;;;;;;;;;1.22;85.00;93781.53;5080110;28;19923;-34
2022/12/02 06:33:31;;;;;;;;;;;;;;;1.27;85.04;93788.25;5091348;28;20320;-34
2022/12/02 06:35:57;;;;;;;;;;;;;;;1.35;84.87;93790.06;5091699;28;20411;-34
2022/12/02 06:38:27;;;;;;;;;;;;;;;1.43;85.05;93795.78;5090597;28;19912;-34
2022/12/02 06:40:52;;;;;;;;;;;;;;;1.47;84.94;93790.91;5092453;28;20384;-34
2022/12/02 06:43:23;;;;;;;;;;;;;;;1.53;84.72;93787.00;5091078;28;19922;-34
2022/12/02 06:45:48;;;;;;;;;;;;;;;1.58;83.93;93801.13;5091425;28;19920;-34
2022/12/02 06:48:32;;;;;;;;;;;;;;;1.65;83.78;93795.22;5092257;28;20442;-34
2022/12/02 06:51:18;;;;;;;;;;;;;;;1.54;82.78;93793.16;5092196;28;19916;-34
2022/12/02 06:53:43;;;;;;;;;;;;;;;1.61;81.93;93787.31;5091530;28;19919;-34
2022/12/02 06:56:18;;;;;;;;;;;;;;;1.50;82.32;93787.97;5092249;28;19920;-34
2022/12/02 06:58:44;;;;;;;;;;;;;;;1.62;83.19;93796.97;5092331;28;20577;-34
2022/12/02 07:01:30;;;;;;;;;;;;;;;1.69;83.51;93804.66;5090884;28;20375;-34
2022/12/02 07:03:58;;;;;;;;;;;;;;;1.73;83.69;93802.50;5091943;28;19918;-34
2022/12/02 07:06:24;;;;;;;;;;;;;;;1.83;83.49;93800.34;5092087;28;19916;-34
2022/12/02 07:08:49;;;;;;;;;;;;;;;1.90;83.72;93789.00;5091896;28;19919;-34
2022/12/02 07:11:15;;;;;;;;;;;;;;;2.00;83.24;93798.47;5091862;28;19962;-34
2022/12/02 07:13:40;;;;;;;;;;;;;;;2.08;82.94;93797.53;5090607;28;20007;-34
2022/12/02 07:16:21;;;;;;;;;;;;;;;2.15;81.83;93799.81;5091353;28;20003;-34
2022/12/02 07:18:46;;;;;;;;;;;;;;;2.24;80.87;93801.59;5090746;28;19912;-34
2022/12/02 07:21:12;;;;;;;;;;;;;;;2.23;80.69;93795.41;5090706;28;19935;-34
2022/12/02 07:23:37;;;;;;;;;;;;;;;2.33;80.84;93795.22;5090276;28;20011;-34
2022/12/02 07:26:02;;;;;;;;;;;;;;;2.43;80.97;93788.31;5091499;28;19969;-34
2022/12/02 07:28:33;;;;;;;;;;;;;;;2.53;80.52;93795.84;5085137;28;20439;-34
2022/12/02 07:31:01;;;;;;;;;;;;;;;2.65;80.06;93796.59;5071199;28;20595;-34
2022/12/02 07:33:26;;;;;;;;;;;;;;;2.72;80.17;93799.63;5071140;28;20348;-34
2022/12/02 07:35:51;;;;;;;;;;;;;;;2.77;79.75;93803.63;5071335;28;20012;-34
2022/12/02 07:38:17;;;;;;;;;;;;;;;2.87;79.54;93796.72;5070130;28;19916;-34
2022/12/02 07:40:42;;;;;;;;;;;;;;;2.93;78.86;93800.94;5071005;28;19912;-34
2022/12/02 07:43:08;;;;;;;;;;;;;;;2.99;78.18;93801.69;5071312;28;19963;-34
2022/12/02 07:45:33;;;;;;;;;;;;;;;2.92;78.25;93804.91;5070916;28;20316;-34
2022/12/02 07:47:58;;;;;;;;;;;;;;;2.97;77.42;93787.06;5070951;28;19912;-34
2022/12/02 07:50:23;;;;;;;;;;;;;;;2.83;77.57;93791.50;5070730;28;19923;-34
2022/12/02 07:52:49;;;;;;;;;;;;;;;2.97;76.98;93806.16;5071168;28;19919;-34
2022/12/02 07:55:14;;;;;;;;;;;;;;;2.93;76.86;93802.91;5071153;28;19920;-34
2022/12/02 07:57:39;;;;;;;;;;;;;;;3.06;76.49;93811.41;5071039;28;19939;-34
2022/12/02 08:00:05;;;;;;;;;;;;;;;3.13;77.00;93807.44;5070899;28;19913;-34
2022/12/02 08:02:31;;;;;;;;;;;;;;;3.13;77.17;93812.91;5070795;28;19913;-34
2022/12/02 08:04:56;;;;;;;;;;;;;;;3.27;77.25;93820.16;5071141;28;19961;-34
2022/12/02 08:07:21;;;;;;;;;;;;;;;3.41;77.61;93827.34;5070877;28;19951;-34
2022/12/02 08:09:47;;;;;;;;;;;;;;;3.52;77.72;93821.94;5071081;28;19995;-34
2022/12/02 08:12:13;;;;;;;;;;;;;;;3.62;77.35;93826.66;5070772;28;19917;-34
2022/12/02 08:14:38;;;;;;;;;;;;;;;3.70;76.68;93824.19;5070732;28;19916;-34
2022/12/02 08:17:03;;;;;;;;;;;;;;;3.74;76.59;93827.41;5077644;28;20025;-34
2022/12/02 08:19:28;;;;;;;;;;;;;;;3.88;75.18;93826.41;5111489;28;19912;-34
2022/12/02 08:21:54;;;;;;;;;;;;;;;4.01;74.63;93826.66;5111406;28;19912;-34
2022/12/02 08:24:19;;;;;;;;;;;;;;;4.11;74.24;93827.19;5111311;28;20410;-34
2022/12/02 08:26:44;;;;;;;;;;;;;;;4.24;74.77;93830.91;5093816;28;19939;-34
2022/12/02 08:29:09;;;;;;;;;;;;;;;4.39;75.03;93836.84;5078615;28;19912;-34
2022/12/02 08:31:35;;;;;;;;;;;;;;;4.42;75.31;93835.84;5070451;28;20002;-34
2022/12/02 08:34:00;;;;;;;;;;;;;;;4.52;74.03;93839.06;5070475;28;19916;-34
2022/12/02 08:36:25;;;;;;;;;;;;;;;4.58;73.28;93835.06;5070644;28;19955;-34
2022/12/02 08:38:51;;;;;;;;;;;;;;;4.51;73.26;93835.56;5070519;28;19917;-34
2022/12/02 08:41:16;;;;;;;;;;;;;;;4.71;74.19;93834.53;5070744;28;19913;-34
2022/12/02 08:43:41;;;;;;;;;;;;;;;4.85;74.50;93832.75;5070651;28;20355;-34
2022/12/02 08:46:07;;;;;;;;;;;;;;;5.03;74.10;93827.47;5070305;28;20362;-34
2022/12/02 08:48:32;;;;;;;;;;;;;;;5.21;72.58;93839.81;5070342;28;19940;-34
2022/12/02 08:50:58;;;;;;;;;;;;;;;5.44;71.84;93835.72;5070374;28;19916;-34
2022/12/02 08:53:23;;;;;;;;;;;;;;;5.67;70.01;93839.09;5070351;28;19919;-34
2022/12/02 08:55:48;;;;;;;;;;;;;;;5.74;70.10;93833.81;5070237;28;20376;-34
2022/12/02 08:58:14;;;;;;;;;;;;;;;5.80;69.95;93844.75;5070154;28;19916;-34
2022/12/02 09:00:39;;;;;;;;;;;;;;;5.84;70.63;93842.50;5070447;28;19913;-34
2022/12/02 09:03:08;;;;;;;;;;;;;;;5.82;70.01;93840.25;5073207;28;19944;-34
2022/12/02 09:05:33;;;;;;;;;;;;;;;6.03;70.10;93837.88;5074210;28;19912;-34
2022/12/02 09:07:59;;;;;;;;;;;;;;;6.30;69.90;93827.94;5074198;28;19935;-34
2022/12/02 09:10:24;;;;;;;;;;;;;;;6.53;68.60;93827.22;5073825;28;19916;-34
2022/12/02 09:12:49;;;;;;;;;;;;;;;6.70;68.74;93827.06;5073798;28;19912;-34
2022/12/02 09:15:15;;;;;;;;;;;;;;;6.78;68.60;93825.22;5073807;28;19928;-34
2022/12/02 09:17:40;;;;;;;;;;;;;;;6.77;67.79;93835.47;5091188;28;19912;-34
2022/12/02 09:20:05;;;;;;;;;;;;;;;6.79;68.08;93830.22;5114543;28;20402;-34
2022/12/02 09:22:31;;;;;;;;;;;;;;;6.83;67.42;93830.66;5114463;28;19918;-34
2022/12/02 09:24:56;;;;;;;;;;;;;;;6.70;68.56;93827.81;5094682;28;20545;-34
2022/12/02 09:27:22;;;;;;;;;;;;;;;6.79;67.83;93824.72;5094115;28;20369;-34
2022/12/02 09:29:47;;;;;;;;;;;;;;;6.95;66.63;93825.81;5093961;28;19969;-34
2022/12/02 09:32:12;;;;;;;;;;;;;;;7.22;66.48;93821.97;5093917;28;19938;-34
2022/12/02 09:34:37;;;;;;;;;;;;;;;7.45;65.67;93814.94;5093874;28;19916;-34
2022/12/02 09:37:03;;;;;;;;;;;;;;;7.99;64.41;93816.69;5093531;28;19923;-34
2022/12/02 09:39:28;;;;;;;;;;;;;;;8.26;63.48;93818.28;5093854;28;19912;-34
2022/12/02 09:41:53;;;;;;;;;;;;;;;8.37;64.10;93820.84;5093525;28;19920;-34
2022/12/02 09:44:19;;;;;;;;;;;;;;;8.34;63.63;93822.66;5093364;28;19965;-34
2022/12/02 09:46:44;;;;;;;;;;;;;;;8.24;63.43;93816.03;5093932;28;19916;-34
2022/12/02 09:49:09;;;;;;;;;;;;;;;8.46;64.81;93819.72;5093632;28;20384;-34
2022/12/02 09:51:35;;;;;;;;;;;;;;;8.75;64.62;93821.47;5093359;28;19918;-34
2022/12/02 09:54:01;;;;;;;;;;;;;;;8.85;62.97;93817.03;5093562;28;19919;-34
2022/12/02 09:56:26;;;;;;;;;;;;;;;8.86;63.01;93813.72;5092009;28;20465;-34
2022/12/02 09:58:52;;;;;;;;;;;;;;;8.67;61.39;93817.84;5093116;28;19912;-34
2022/12/02 10:01:18;;;;;;;;;;;;;;;8.49;62.60;93813.88;5092307;28;19949;-34
2022/12/02 10:03:43;;;;;;;;;;;;;;;8.61;63.68;93811.69;5091949;28;19912;-34
2022/12/02 10:06:13;;;;;;;;;;;;;;;8.77;63.70;93819.66;5093061;28;19941;-34
2022/12/02 10:08:38;;;;;;;;;;;;;;;8.77;62.83;93802.41;5093015;28;19925;-34
2022/12/02 10:11:04;;;;;;;;;;;;;;;8.72;63.62;93819.75;5092949;28;19912;-34
2022/12/02 10:13:29;;;;;;;;;;;;;;;8.73;63.14;93808.22;5091555;28;19912;-34
2022/12/02 10:15:54;;;;;;;;;;;;;;;8.77;63.56;93807.91;5091369;28;19924;-34
2022/12/02 10:19:45;;;;;;;12.32;8.32;;;;;;;8.96;63.35;93798.28;5058796;27;2030491;-34
2022/12/02 10:22:16;;;;;;;14.02;8.25;;;;;;;8.87;63.72;93795.94;5090131;28;20127;-34
2022/12/02 10:24:41;;;;;;;13.60;7.15;;;;;;;8.90;63.03;93791.41;5108288;28;20024;-34
2022/12/02 10:27:07;;;;;;;11.98;8.10;;;;;;;8.82;64.39;93788.53;5107972;28;20050;-34
2022/12/02 10:29:33;;;;;;;11.02;7.18;;;;;;;8.86;64.21;93796.47;5099042;28;20035;-34
2022/12/02 10:32:04;;;;;;;8.93;6.72;;;;;;;8.75;64.69;93791.91;5108217;28;20035;-34
2022/12/02 10:34:31;;;;;;;15.02;6.22;;;;;;;8.92;64.09;93795.09;5107905;28;20023;-34
2022/12/02 10:37:15;;;;;;;12.20;6.40;;;;;;;9.00;64.57;93798.72;5107843;28;20027;-34
2022/12/02 10:39:40;;;;;;;8.85;6.60;;;;;;;9.00;64.42;93795.19;5107757;28;20487;-34
2022/12/02 10:42:12;;;;;;;13.65;8.20;;;;;;;9.03;64.71;93780.38;5107705;28;20024;-34
2022/12/02 10:44:42;;;;;;;11.27;7.07;;;;;;;9.02;64.13;93793.41;5089695;28;20050;-34
2022/12/02 10:47:22;;;;;;;10.10;6.82;;;;;;;8.96;64.13;93789.28;5089460;28;20031;-34
2022/12/02 10:49:52;;;;;;;12.95;7.65;;;;;;;9.06;62.94;93791.06;5107854;28;20028;-34
2022/12/02 10:52:17;;;;;;;;;;;;;;;9.24;63.54;93778.44;5108017;28;20024;-34
2022/12/02 10:54:46;;;;;;;10.45;6.82;;;;;;;9.13;64.86;93765.66;5089649;28;19961;-34
2022/12/02 10:57:23;;;;;;;10.57;7.60;;;;;;;9.37;64.37;93783.19;5107634;28;20024;-34
2022/12/02 10:59:49;;;;;;;11.32;7.80;;;;;;;9.47;64.05;93775.94;5107629;28;20075;-34
2022/12/02 11:02:23;;;;;;;8.93;6.80;;;;;;;9.62;63.42;93779.63;5107533;28;20503;-34
2022/12/02 11:04:49;;;;;;;11.23;6.70;;;;;;;9.62;63.15;93754.81;5089091;28;20111;-34
2022/12/02 11:07:16;;;;;;;9.15;6.15;;;;;;;9.76;63.20;93778.31;5107211;28;20106;-34
2022/12/02 11:09:46;;;;;;;5.35;3.83;;;;;;;9.70;63.20;93774.22;5088934;28;20023;-34
2022/12/02 11:12:56;;;;;;;3.60;2.58;;;;;;;9.79;63.05;93782.00;5088741;28;20052;-34
2022/12/02 11:15:39;;;;;;;7.15;3.80;;;;;;;9.58;64.49;93778.47;5107018;28;20518;-34
2022/12/02 11:18:06;;;;;;;10.75;6.70;;;;;;;9.46;64.10;93785.50;5106612;28;20064;-34
2022/12/02 11:20:39;;;;;;;10.05;7.90;;;;;;;9.53;63.78;93782.09;5093183;28;20412;-34
2022/12/02 11:23:07;;;;;;;7.28;4.70;;;;;;;9.54;65.11;93784.31;5086876;28;20051;-34
2022/12/02 11:25:42;;;;;;;10.30;5.32;;;;;;;9.56;64.52;93781.03;5093346;28;20027;-34
2022/12/02 11:28:16;;;;;;;10.10;5.80;;;;;;;9.64;64.91;93779.09;5103377;28;20092;-35
2022/12/02 11:30:42;;;;;;;8.75;5.35;;;;;;;9.76;64.80;93788.59;5091168;28;20078;-34
2022/12/02 11:33:13;;;;;;;18.00;6.18;;;;;;;9.86;65.34;93792.38;5093137;28;20024;-34
2022/12/02 11:36:10;;;;;;;5.13;3.22;;;;;;;9.89;64.47;93788.56;5093384;28;20023;-34
2022/12/02 11:38:46;;;;;;;8.85;5.80;;;;;;;9.68;65.27;93788.50;5093006;28;20519;-34
2022/12/02 11:41:12;;;;;;;6.28;4.78;;;;;;;9.57;66.60;93790.78;5093205;28;20407;-34
2022/12/02 11:43:47;;;;;;;3.58;2.83;;;;;;;9.56;66.45;93792.06;5093227;28;20055;-35
2022/12/02 11:46:40;;;;;;;5.65;3.47;;;;;;;9.63;66.34;93794.16;5092785;28;20109;-34
2022/12/02 11:49:26;;;;;;;2.70;2.25;;;;;;;9.64;66.50;93795.63;5092073;28;20060;-35
2022/12/02 11:52:19;;;;;;;2.25;2.05;;;;;;;9.63;66.97;93789.41;5074974;28;20108;-34
2022/12/02 11:54:52;;;;;;;3.15;2.45;;;;;;;9.46;68.27;93791.78;5092114;28;20032;-34
2022/12/02 11:57:28;;;;;;;5.20;2.70;;;;;;;9.29;67.16;93785.84;5075060;28;20468;-34
2022/12/02 11:59:54;;;;;;;3.60;2.97;;;;;;;9.15;69.08;93787.16;5092712;28;20491;-34
2022/12/02 12:02:22;;;;;;;5.78;3.38;;;;;;;9.24;69.21;93789.47;5074498;28;20035;-34
2022/12/02 12:05:05;;;;;;;3.40;2.28;;;;;;;9.31;69.40;93788.09;5092789;28;20043;-34
2022/12/02 12:07:45;;;;;;;2.40;2.20;;;;;;;9.32;69.14;93784.03;5092488;28;20024;-34
2022/12/02 12:10:27;;;;;;;4.28;2.95;;;;;;;9.26;69.45;93781.41;5092623;28;20107;-34
2022/12/02 12:13:11;;;;;;;3.33;2.58;;;;;;;9.29;69.37;93785.84;5092428;28;20020;-34
2022/12/02 12:15:51;;;;;;;3.05;2.35;;;;;;;9.09;69.74;93778.25;5092470;28;20044;-34
2022/12/02 12:18:34;;;;;;;5.18;2.42;;;;;;;9.18;69.56;93778.53;5078268;28;20080;-34
2022/12/02 12:20:59;;;;;;;2.15;1.75;;;;;;;9.00;70.16;93779.44;5072310;28;20150;-34
2022/12/02 12:23:29;;;;;;;1.55;1.40;;;;;;;8.91;70.86;93781.84;5071992;28;20508;-34
2022/12/02 12:25:55;;;;;;;2.63;1.83;;;;;;;8.94;70.88;93778.78;5081621;28;20519;-34
2022/12/02 12:28:23;;;;;;;39.33;20.65;;;;;;;9.02;70.75;93785.16;5069076;28;20020;-34
2022/12/02 12:30:49;;;;;;;10.52;6.55;;;;;;;9.08;70.86;93782.28;5088544;28;20087;-34
2022/12/02 12:33:14;;;;;;;3.55;2.97;;;;;;;9.05;71.25;93780.59;5092257;28;20108;-34
2022/12/02 12:35:40;;;;;;;2.60;2.08;;;;;;;9.15;71.84;93781.63;5091929;28;20027;-34
2022/12/02 12:38:05;;;;;;;8.25;3.25;;;;;;;9.13;72.18;93789.69;5092101;28;20028;-34
2022/12/02 12:40:30;;;;;;;4.63;3.60;;;;;;;9.04;72.42;93788.09;5091554;28;20486;-34
2022/12/02 12:42:56;;;;;;;5.82;4.13;;;;;;;9.01;72.55;93785.66;5091027;28;20028;-34
2022/12/02 12:45:21;;;;;;;7.20;4.60;;;;;;;8.95;72.68;93790.53;5091702;28;20035;-34
2022/12/02 12:47:47;;;;;;;8.38;5.43;;;;;;;8.82;72.70;93791.28;5073657;28;20027;-34
2022/12/02 12:50:12;;;;;;;6.78;4.78;;;;;;;8.75;73.31;93789.16;5091592;28;20027;-34